OTP weather

Henri Coandă International Airport
Bucharest, Bucureşti, Romania

Public forecast

Using degrees Celsius for public forecast. Weather courtesy of forecast.io.

Current aviation weather report (METAR) for Henri Coandă International Airport

Retrieved 2019/10/17 05:30 UTC (0 seconds ago):

LROP 170530Z 24002KT 1400 R08R/2000 R26L/0500N R08L/0700 R26R/0400N BCFG BKN002 09/09 Q1019 BECMG 3000 BR

Aviation forecast (TAF) for Henri Coandă International Airport

Retrieved 2019-10-17 00:33 UTC (5 hours ago):

TAF LROP 162300Z 1700/1724 05006KT 3000 BR NSC BECMG 1700/1702 0600 FG BKN002 TEMPO 1702/1705 0150 FG VV001 BECMG 1705/1707 1500 BR BKN005 BECMG 1707/1709 5000 BKN010 BECMG 1709/1711 CAVOK BECMG 1722/1724 3000 BR